Time;durP1;ratioP1;P1;durP2;ratioP2;P2;SDS_P1;SDS_P2;PMS_P1;PMS_P2;Temp;Humidity;BMP_temperature;BMP_pressure;BME280_temperature;BME280_humidity;BME280_pressure;Samples;Min_cycle;Max_cycle;Signal;HPM_P1;HPM_P2
2021/12/10 00:00:55;;;;;;;38.08;14.63;;;;;;;3.22;52.07;99881.78;4989431;28;20033;-67
2021/12/10 00:03:31;;;;;;;35.55;16.30;;;;;;;3.22;52.26;99886.94;4986823;28;20105;-67
2021/12/10 00:06:22;;;;;;;36.85;14.18;;;;;;;3.33;52.04;99890.13;4957787;28;20161;-68
2021/12/10 00:08:53;;;;;;;37.45;15.45;;;;;;;3.29;51.75;99885.91;4977975;28;20040;-67
2021/12/10 00:11:44;;;;;;;36.88;15.35;;;;;;;2.73;53.54;99869.19;4968679;28;20037;-65
2021/12/10 00:14:10;;;;;;;34.65;15.00;;;;;;;3.12;52.78;99866.53;4986165;28;20463;-66
2021/12/10 00:16:37;;;;;;;36.53;14.35;;;;;;;3.19;52.00;99867.22;4982130;28;20053;-66
2021/12/10 00:19:32;;;;;;;34.20;15.27;;;;;;;3.29;51.85;99868.72;4989608;28;20354;-66
2021/12/10 00:21:51;;;;;;;35.22;15.13;;;;;;;3.11;52.40;99863.97;4987151;28;20145;-66
2021/12/10 00:24:17;;;;;;;32.70;14.77;;;;;;;3.01;52.65;99858.19;4986031;28;20034;-66
2021/12/10 00:26:44;;;;;;;33.33;13.23;;;;;;;3.22;52.14;99854.22;4986104;28;20037;-66
2021/12/10 00:29:12;;;;;;;40.80;16.08;;;;;;;3.06;52.93;99852.91;4970868;28;20026;-66
2021/12/10 00:31:48;;;;;;;36.38;16.65;;;;;;;2.80;53.63;99850.97;4986437;28;20620;-65
2021/12/10 00:34:19;;;;;;;40.63;14.90;;;;;;;3.06;52.88;99851.19;4985541;28;20120;-66
2021/12/10 00:36:46;;;;;;;40.45;14.95;;;;;;;3.07;52.44;99852.88;4972079;28;20438;-66
2021/12/10 00:39:26;;;;;;;41.85;15.82;;;;;;;3.01;52.93;99847.88;4985492;28;20108;-66
2021/12/10 00:41:53;;;;;;;42.30;17.67;;;;;;;3.19;52.49;99837.06;4972324;28;21196;-66
2021/12/10 00:44:19;;;;;;;38.05;15.57;;;;;;;2.83;53.42;99835.44;4986303;28;20042;-66
2021/12/10 00:46:45;;;;;;;38.53;16.73;;;;;;;3.12;52.75;99840.69;4971032;28;20042;-67
2021/12/10 00:49:11;;;;;;;34.78;14.40;;;;;;;3.15;52.74;99835.44;4987450;28;20105;-65
2021/12/10 00:51:38;;;;;;;33.83;15.35;;;;;;;3.12;52.52;99839.84;4986635;28;20476;-66
2021/12/10 00:54:06;;;;;;;37.47;15.82;;;;;;;3.16;52.38;99842.31;4989120;28;20069;-66
2021/12/10 00:56:32;;;;;;;36.90;16.15;;;;;;;3.25;52.44;99837.78;4978742;28;20041;-66
2021/12/10 00:58:59;;;;;;;36.80;16.13;;;;;;;3.15;52.51;99840.59;4988518;28;20448;-66
2021/12/10 01:01:28;;;;;;;44.20;14.95;;;;;;;3.15;52.62;99843.19;4985818;28;20525;-66
2021/12/10 01:03:59;;;;;;;44.05;16.58;;;;;;;3.17;52.68;99843.16;4969316;28;20050;-66
2021/12/10 01:06:26;;;;;;;39.80;15.95;;;;;;;3.15;52.81;99840.59;4985170;28;20049;-66
2021/12/10 01:08:56;;;;;;;41.88;16.48;;;;;;;3.16;52.49;99838.91;4970672;28;20050;-66
2021/12/10 01:11:27;;;;;;;38.45;14.63;;;;;;;3.10;52.31;99837.31;4976911;28;20045;-66
2021/12/10 01:14:01;;;;;;;39.42;15.75;;;;;;;3.08;52.74;99839.06;4984274;28;20412;-66
2021/12/10 01:25:05;;;;;;;41.83;16.35;;;;;;;3.14;52.58;99826.03;4988070;28;21349;-66
2021/12/10 01:27:34;;;;;;;40.33;17.58;;;;;;;3.09;52.75;99827.00;4985057;28;20654;-65
2021/12/10 01:30:10;;;;;;;36.55;15.70;;;;;;;2.86;53.35;99820.69;4987401;28;20568;-67
2021/12/10 01:32:40;;;;;;;44.17;18.05;;;;;;;2.87;53.15;99819.00;4982932;28;20046;-66
2021/12/10 01:35:09;;;;;;;39.10;15.45;;;;;;;3.14;52.46;99809.69;4988118;28;20046;-66
2021/12/10 01:37:36;;;;;;;36.30;16.65;;;;;;;3.09;52.55;99814.97;4985492;28;20045;-66
2021/12/10 01:40:05;;;;;;;35.65;14.85;;;;;;;3.10;52.65;99816.66;4987139;28;20049;-67
2021/12/10 01:42:42;;;;;;;36.45;16.83;;;;;;;3.08;52.83;99817.59;4984936;28;20038;-67
2021/12/10 01:45:19;;;;;;;35.80;16.33;;;;;;;3.22;52.46;99804.31;4986064;28;20076;-64
2021/12/10 01:47:47;;;;;;;43.63;16.35;;;;;;;3.31;52.19;99804.09;4983609;28;20455;-68
2021/12/10 01:50:13;;;;;;;41.97;17.48;;;;;;;3.08;52.79;99802.94;4985021;28;20896;-67
2021/12/10 01:52:39;;;;;;;44.97;17.65;;;;;;;3.23;52.31;99795.69;4984587;28;20041;-68
2021/12/10 01:55:06;;;;;;;39.20;15.52;;;;;;;3.11;52.62;99791.66;4987884;28;20041;-66
2021/12/10 01:57:34;;;;;;;43.92;15.57;;;;;;;3.13;52.63;99783.00;4970849;28;20038;-67
2021/12/10 02:00:04;;;;;;;36.42;15.75;;;;;;;3.23;52.37;99780.19;4986521;28;20042;-68
2021/12/10 02:02:35;;;;;;;38.25;15.25;;;;;;;3.15;52.77;99781.22;4984476;28;20042;-67
2021/12/10 02:05:04;;;;;;;38.58;16.73;;;;;;;3.08;52.57;99782.28;4987682;28;20042;-68
2021/12/10 02:07:30;;;;;;;43.80;16.55;;;;;;;3.17;52.14;99776.88;4984314;28;20037;-68
2021/12/10 02:09:56;;;;;;;32.00;15.48;;;;;;;3.24;52.57;99776.72;4977853;28;20395;-67
2021/12/10 02:12:23;;;;;;;41.90;17.25;;;;;;;2.88;53.14;99779.38;4985795;28;20419;-67
2021/12/10 02:14:58;;;;;;;41.42;18.27;;;;;;;3.10;52.75;99779.66;4985913;28;20458;-64
2021/12/10 02:17:30;;;;;;;40.55;17.75;;;;;;;3.04;53.09;99774.66;4983258;28;20042;-63
2021/12/10 02:19:56;;;;;;;39.45;16.92;;;;;;;3.22;52.22;99773.31;4976514;28;20038;-63
2021/12/10 02:22:21;;;;;;;37.17;15.45;;;;;;;3.13;52.39;99769.25;4984430;28;20198;-63
2021/12/10 02:24:47;;;;;;;45.85;17.63;;;;;;;2.89;53.10;99766.44;4985198;28;20122;-64
2021/12/10 02:27:12;;;;;;;41.25;16.08;;;;;;;3.06;52.81;99767.72;4986170;28;20416;-63
2021/12/10 02:29:40;;;;;;;41.67;16.95;;;;;;;3.07;52.76;99770.28;4988445;28;20025;-63
2021/12/10 02:32:10;;;;;;;38.55;16.75;;;;;;;3.11;52.94;99765.84;4988135;28;20418;-64
2021/12/10 02:34:36;;;;;;;45.38;17.30;;;;;;;3.18;52.32;99757.91;4989363;28;20038;-64
2021/12/10 02:37:03;;;;;;;44.38;18.63;;;;;;;3.07;53.11;99749.63;4989399;28;20043;-64
2021/12/10 02:39:29;;;;;;;44.20;15.00;;;;;;;2.84;53.29;99745.03;4988414;28;20045;-64
2021/12/10 02:41:55;;;;;;;41.08;16.27;;;;;;;3.15;52.50;99739.06;4990186;28;20069;-64
2021/12/10 02:44:24;;;;;;;42.30;17.10;;;;;;;3.11;52.56;99738.31;4987422;28;20468;-65
2021/12/10 02:46:50;;;;;;;35.78;15.20;;;;;;;3.14;52.68;99740.81;4988620;28;20136;-64
2021/12/10 02:49:16;;;;;;;37.65;15.02;;;;;;;3.01;52.74;99733.44;4990087;28;20037;-64
2021/12/10 02:51:43;;;;;;;37.22;15.75;;;;;;;2.98;52.90;99744.69;4961408;28;20042;-64
2021/12/10 02:54:11;;;;;;;34.22;14.80;;;;;;;2.90;52.72;99729.41;4987825;28;20057;-64
2021/12/10 02:56:39;;;;;;;37.30;15.65;;;;;;;2.71;52.97;99726.47;4988162;28;20069;-64
2021/12/10 02:59:05;;;;;;;40.13;15.65;;;;;;;2.87;52.89;99720.91;4988680;28;20112;-65
2021/12/10 03:01:46;;;;;;;40.40;16.20;;;;;;;3.15;52.21;99715.84;4990860;28;20042;-65
2021/12/10 03:04:13;;;;;;;29.70;11.63;;;;;;;3.10;52.53;99715.97;4987716;28;20419;-65
2021/12/10 03:06:45;;;;;;;40.50;14.90;;;;;;;3.19;52.04;99710.53;4973020;28;20049;-64
2021/12/10 03:09:12;;;;;;;33.40;14.55;;;;;;;2.97;52.51;99706.84;4989176;28;20640;-65
2021/12/10 03:11:39;;;;;;;34.58;14.60;;;;;;;2.94;52.63;99704.38;4985061;28;20023;-65
2021/12/10 03:14:10;;;;;;;31.80;14.70;;;;;;;2.75;53.39;99714.31;4989412;28;20475;-65
2021/12/10 03:16:41;;;;;;;36.88;15.32;;;;;;;2.86;53.15;99698.56;4987348;28;20586;-65
2021/12/10 03:19:07;;;;;;;31.92;13.40;;;;;;;2.79;53.00;99702.19;4988234;28;20128;-65
2021/12/10 03:21:33;;;;;;;40.63;15.88;;;;;;;2.95;52.94;99703.47;4988523;28;20045;-65
2021/12/10 03:23:59;;;;;;;31.60;14.68;;;;;;;2.91;52.95;99696.69;4979328;28;20069;-65
2021/12/10 03:26:25;;;;;;;35.15;14.25;;;;;;;3.05;52.59;99701.50;4988675;28;20044;-65
2021/12/10 03:28:52;;;;;;;36.35;16.40;;;;;;;3.20;51.78;99690.72;4988118;28;20109;-65
2021/12/10 03:31:20;;;;;;;32.25;14.73;;;;;;;2.99;52.67;99702.50;4971716;28;20061;-66
2021/12/10 03:33:47;;;;;;;34.88;15.55;;;;;;;2.80;53.02;99703.88;4988040;28;20077;-64
2021/12/10 03:36:14;;;;;;;38.30;16.65;;;;;;;2.89;52.99;99693.28;4979411;28;20034;-64
2021/12/10 03:38:40;;;;;;;34.60;14.80;;;;;;;3.10;52.18;99694.47;4979313;28;20026;-67
2021/12/10 03:41:08;;;;;;;35.30;15.57;;;;;;;3.03;52.36;99696.38;4986621;28;20038;-64
2021/12/10 03:43:34;;;;;;;34.28;16.02;;;;;;;3.04;52.33;99697.22;4989331;28;20038;-64
2021/12/10 03:46:00;;;;;;;35.03;14.27;;;;;;;2.98;52.69;99696.50;4987489;28;20041;-64
2021/12/10 03:48:33;;;;;;;38.47;13.82;;;;;;;2.90;52.96;99684.69;4986618;28;20087;-65
2021/12/10 03:51:01;;;;;;;41.22;16.08;;;;;;;2.91;52.92;99682.06;4963911;28;20045;-65
2021/12/10 03:53:27;;;;;;;39.63;16.77;;;;;;;3.10;52.42;99674.66;4987668;28;20128;-64
2021/12/10 03:55:59;;;;;;;36.15;15.35;;;;;;;2.99;52.97;99681.84;4963616;28;20038;-64
2021/12/10 03:58:24;;;;;;;38.78;14.95;;;;;;;2.91;53.02;99681.19;4987047;28;20037;-64
2021/12/10 04:00:52;;;;;;;36.38;15.50;;;;;;;2.89;53.21;99665.78;4987251;28;20101;-64
2021/12/10 04:03:21;;;;;;;41.22;17.27;;;;;;;2.74;53.51;99661.88;4986907;28;20042;-63
2021/12/10 04:05:48;;;;;;;34.10;14.93;;;;;;;2.71;53.71;99664.53;4987485;28;20046;-63
2021/12/10 04:08:14;;;;;;;34.30;15.85;;;;;;;2.80;53.38;99657.41;4978543;28;20111;-64
2021/12/10 04:10:39;;;;;;;31.25;15.10;;;;;;;2.83;53.34;99653.03;4987039;28;20117;-63
2021/12/10 04:13:05;;;;;;;37.55;15.55;;;;;;;2.77;53.24;99664.34;4988241;28;20057;-64
2021/12/10 04:15:31;;;;;;;36.05;15.50;;;;;;;2.88;52.90;99663.22;4979009;28;20109;-64
2021/12/10 04:17:58;;;;;;;34.78;15.25;;;;;;;2.77;53.44;99659.19;4987014;28;20042;-65
2021/12/10 04:20:26;;;;;;;33.58;15.25;;;;;;;2.35;54.36;99661.16;4963857;28;20499;-65
2021/12/10 04:22:53;;;;;;;30.50;14.57;;;;;;;2.55;53.88;99658.06;4986689;28;20042;-65
2021/12/10 04:25:21;;;;;;;34.00;13.05;;;;;;;2.65;53.49;99653.53;4988184;28;20569;-65
2021/12/10 04:27:48;;;;;;;31.55;14.90;;;;;;;2.45;53.87;99661.81;4976449;28;20033;-65
2021/12/10 04:30:15;;;;;;;31.02;14.88;;;;;;;2.55;53.43;99658.06;4970243;28;20034;-65
2021/12/10 04:32:43;;;;;;;38.95;13.88;;;;;;;2.50;53.82;99665.09;4984213;28;20419;-65
2021/12/10 04:35:09;;;;;;;28.05;14.15;;;;;;;2.53;53.44;99660.72;4986380;28;20038;-64
2021/12/10 04:37:35;;;;;;;30.33;13.90;;;;;;;2.50;53.59;99659.94;4986623;28;20163;-65
2021/12/10 04:40:03;;;;;;;32.75;14.27;;;;;;;2.60;53.52;99651.09;4989310;28;20038;-64
2021/12/10 04:42:30;;;;;;;34.63;14.40;;;;;;;2.53;53.49;99650.41;4978176;28;20041;-65
2021/12/10 04:44:57;;;;;;;30.50;14.18;;;;;;;2.55;53.63;99647.75;4986359;28;20350;-65
2021/12/10 04:47:24;;;;;;;25.52;12.95;;;;;;;2.46;53.73;99653.16;4985521;28;20104;-65
2021/12/10 04:49:50;;;;;;;30.35;14.25;;;;;;;2.35;53.82;99645.69;4988013;28;20111;-65
2021/12/10 04:52:16;;;;;;;31.13;12.85;;;;;;;2.30;54.23;99643.22;4985968;28;20038;-65
2021/12/10 04:54:42;;;;;;;35.33;14.55;;;;;;;2.38;53.71;99644.75;4986788;28;20044;-65
2021/12/10 04:57:09;;;;;;;28.23;13.55;;;;;;;2.22;54.13;99640.03;4987106;28;20223;-64
2021/12/10 04:59:36;;;;;;;31.05;13.57;;;;;;;2.66;52.85;99643.16;4985554;28;20074;-65
2021/12/10 05:02:04;;;;;;;33.88;14.07;;;;;;;2.77;52.87;99635.97;4971558;28;20049;-65
2021/12/10 05:04:30;;;;;;;32.85;13.55;;;;;;;2.67;53.13;99637.13;4985707;28;20045;-65
2021/12/10 05:06:58;;;;;;;29.73;13.73;;;;;;;2.53;53.19;99639.22;4987683;28;20038;-65
2021/12/10 05:09:23;;;;;;;29.52;12.57;;;;;;;2.53;53.35;99644.38;4970514;28;20069;-65
2021/12/10 05:11:50;;;;;;;26.95;12.85;;;;;;;2.36;53.77;99644.81;4986011;28;20128;-65
2021/12/10 05:14:17;;;;;;;29.88;12.43;;;;;;;2.57;53.36;99644.25;4987070;28;20038;-65
2021/12/10 05:16:46;;;;;;;28.50;12.52;;;;;;;2.70;53.03;99647.34;4985903;28;20046;-64
2021/12/10 05:19:15;;;;;;;32.47;13.75;;;;;;;2.79;52.53;99641.09;4986298;28;20045;-65
2021/12/10 05:21:42;;;;;;;33.22;11.80;;;;;;;2.83;52.30;99637.56;4987443;28;20042;-65
2021/12/10 05:24:09;;;;;;;26.95;12.80;;;;;;;2.66;52.77;99634.56;4987099;28;20030;-65
2021/12/10 05:26:35;;;;;;;30.65;14.13;;;;;;;2.47;52.92;99639.41;4988386;28;20033;-66
2021/12/10 05:29:02;;;;;;;26.80;13.02;;;;;;;2.45;53.31;99641.16;4986193;28;20049;-66
2021/12/10 05:31:28;;;;;;;31.45;13.30;;;;;;;2.65;52.84;99636.31;4973983;28;20116;-66
2021/12/10 05:33:53;;;;;;;27.90;12.40;;;;;;;2.55;53.02;99638.31;4986079;28;20080;-66
2021/12/10 05:36:19;;;;;;;34.13;13.27;;;;;;;2.65;53.21;99633.75;4971471;28;20606;-65
2021/12/10 05:38:44;;;;;;;23.98;12.55;;;;;;;2.75;52.86;99635.16;4984964;28;20096;-65
2021/12/10 05:41:10;;;;;;;25.33;13.05;;;;;;;2.51;52.96;99638.41;4986459;28;20270;-67
2021/12/10 05:43:39;;;;;;;27.30;12.48;;;;;;;2.70;52.56;99636.19;4986097;28;20466;-65
2021/12/10 05:46:04;;;;;;;25.23;11.40;;;;;;;2.74;52.72;99633.50;4975692;28;20030;-65
2021/12/10 05:48:31;;;;;;;26.35;12.48;;;;;;;2.79;52.65;99635.94;4972657;28;20041;-65
2021/12/10 05:50:57;;;;;;;25.50;12.13;;;;;;;2.70;52.63;99626.72;4986913;28;20121;-64
2021/12/10 05:53:23;;;;;;;27.95;12.43;;;;;;;2.80;52.43;99613.56;4986150;28;20141;-64
2021/12/10 05:55:49;;;;;;;27.58;11.25;;;;;;;2.55;52.88;99607.34;4985383;28;20085;-64
2021/12/10 05:58:15;;;;;;;23.80;11.18;;;;;;;2.61;52.59;99610.66;4984132;28;20116;-67
2021/12/10 06:00:50;;;;;;;24.73;11.15;;;;;;;2.44;53.19;99603.34;4984679;28;20575;-67
2021/12/10 06:03:17;;;;;;;20.17;10.75;;;;;;;2.33;53.21;99596.75;4990634;28;20442;-67
2021/12/10 06:05:44;;;;;;;19.50;10.63;;;;;;;2.49;52.72;99604.09;4988789;28;20045;-69
2021/12/10 06:08:11;;;;;;;21.60;10.73;;;;;;;2.54;52.68;99604.81;4989111;28;20034;-68
2021/12/10 06:10:38;;;;;;;20.73;10.75;;;;;;;2.47;52.63;99608.44;4989915;28;20752;-68
2021/12/10 06:13:04;;;;;;;23.02;10.05;;;;;;;2.55;52.39;99602.19;4976266;28;20042;-68
2021/12/10 06:15:30;;;;;;;18.50;9.75;;;;;;;2.44;52.82;99603.34;4990125;28;20042;-68
2021/12/10 06:17:57;;;;;;;22.58;9.25;;;;;;;2.69;51.99;99601.81;4987831;28;20105;-68
2021/12/10 06:20:26;;;;;;;19.13;8.95;;;;;;;2.59;52.44;99608.09;4974450;28;20057;-68
2021/12/10 06:22:52;;;;;;;20.73;9.70;;;;;;;2.26;53.20;99615.84;4990900;28;20042;-68
2021/12/10 06:25:18;;;;;;;19.27;10.13;;;;;;;2.46;52.75;99606.75;4980392;28;20069;-68
2021/12/10 06:27:46;;;;;;;22.23;9.82;;;;;;;2.47;52.54;99611.03;4975109;28;20061;-68
2021/12/10 06:30:17;;;;;;;18.17;9.13;;;;;;;2.60;52.11;99603.78;4990402;28;20442;-68
2021/12/10 06:32:44;;;;;;;14.10;7.03;;;;;;;2.61;52.16;99598.59;4979136;28;20042;-68
2021/12/10 06:35:11;;;;;;;17.02;8.07;;;;;;;2.33;52.64;99601.91;4989836;28;20393;-65
2021/12/10 06:37:38;;;;;;;17.58;9.00;;;;;;;2.30;52.78;99594.25;4988416;28;20401;-66
2021/12/10 06:40:07;;;;;;;23.30;10.18;;;;;;;2.38;52.58;99601.78;4989843;28;20030;-66
2021/12/10 06:42:32;;;;;;;17.88;8.93;;;;;;;2.47;52.35;99595.56;4972633;28;20042;-65
2021/12/10 06:44:58;;;;;;;17.55;7.63;;;;;;;2.52;52.10;99597.09;4992629;28;20396;-66
2021/12/10 06:47:24;;;;;;;19.40;8.25;;;;;;;2.56;52.05;99600.47;4988953;28;20459;-66
2021/12/10 06:49:49;;;;;;;15.93;8.55;;;;;;;2.68;51.86;99592.38;4980802;28;20032;-65
2021/12/10 06:52:15;;;;;;;17.63;8.85;;;;;;;2.48;52.39;99594.66;4987418;28;20040;-65
2021/12/10 06:54:41;;;;;;;16.33;8.68;;;;;;;2.27;52.17;99596.91;4973537;28;20038;-65
2021/12/10 06:57:06;;;;;;;18.80;8.90;;;;;;;2.33;52.32;99591.59;4967664;28;20049;-65
2021/12/10 06:59:32;;;;;;;19.38;8.10;;;;;;;2.31;52.42;99589.94;4984601;28;20120;-66
2021/12/10 07:01:57;;;;;;;15.02;7.43;;;;;;;2.30;52.29;99591.66;4976618;28;20030;-66
2021/12/10 07:04:23;;;;;;;19.60;8.88;;;;;;;2.34;52.26;99588.13;4983525;28;20384;-66
2021/12/10 07:06:49;;;;;;;14.73;6.78;;;;;;;2.22;52.41;99585.88;4972163;28;20085;-66
2021/12/10 07:09:19;;;;;;;14.95;6.85;;;;;;;2.17;52.81;99590.28;4969716;28;20083;-65
2021/12/10 07:11:46;;;;;;;19.10;7.93;;;;;;;2.24;52.71;99576.38;4985197;28;20092;-66
2021/12/10 07:14:11;;;;;;;17.15;7.38;;;;;;;2.10;52.97;99584.44;4985854;28;20041;-66
2021/12/10 07:16:37;;;;;;;18.65;6.95;;;;;;;2.14;52.59;99580.06;4972558;28;20049;-66
2021/12/10 07:19:05;;;;;;;15.05;7.30;;;;;;;2.15;52.31;99576.59;4985342;28;20042;-66
2021/12/10 07:21:33;;;;;;;15.02;6.25;;;;;;;2.07;52.94;99578.53;4971870;28;20088;-66
2021/12/10 07:24:01;;;;;;;15.57;7.28;;;;;;;2.05;52.58;99580.31;4945355;28;20349;-66
2021/12/10 07:26:28;;;;;;;13.80;6.88;;;;;;;2.10;52.92;99578.44;4918345;28;20038;-65
2021/12/10 07:28:54;;;;;;;12.30;7.40;;;;;;;2.22;52.20;99573.00;4986454;28;20045;-69
2021/12/10 07:31:20;;;;;;;10.75;6.00;;;;;;;2.08;52.84;99570.75;4986711;28;20053;-66
2021/12/10 07:33:45;;;;;;;13.05;6.45;;;;;;;2.18;52.16;99573.13;4984442;28;20037;-66
2021/12/10 07:36:12;;;;;;;13.32;6.05;;;;;;;2.37;51.76;99570.88;4984128;28;20065;-66
2021/12/10 07:38:38;;;;;;;8.77;5.72;;;;;;;2.35;51.51;99569.22;4986192;28;20038;-65
2021/12/10 07:41:06;;;;;;;13.73;6.32;;;;;;;2.35;51.64;99571.78;4983199;28;20038;-66
2021/12/10 07:43:32;;;;;;;14.48;5.78;;;;;;;2.13;52.16;99566.34;4984944;28;20045;-66
2021/12/10 07:45:58;;;;;;;11.18;6.47;;;;;;;2.26;51.82;99569.44;4986500;28;20407;-67
2021/12/10 07:48:26;;;;;;;12.05;6.10;;;;;;;2.26;52.10;99574.59;4972608;28;20068;-66
2021/12/10 07:51:06;;;;;;;11.88;6.13;;;;;;;2.09;52.70;99576.78;4970843;28;20038;-66
2021/12/10 07:53:33;;;;;;;12.93;5.53;;;;;;;2.20;52.07;99573.91;4986730;28;20149;-66
2021/12/10 07:56:01;;;;;;;10.85;5.82;;;;;;;2.10;52.20;99573.31;4985507;28;20092;-66
2021/12/10 07:58:29;;;;;;;15.10;5.88;;;;;;;2.41;51.51;99567.34;4987459;28;20043;-65
2021/12/10 08:00:55;;;;;;;11.57;5.68;;;;;;;2.30;51.66;99565.03;4985377;28;21564;-65
2021/12/10 08:03:21;;;;;;;13.50;6.50;;;;;;;2.36;51.66;99567.47;4949645;28;20252;-66
2021/12/10 08:05:48;;;;;;;12.13;5.68;;;;;;;2.37;51.49;99570.88;4977101;28;20056;-66
2021/12/10 08:08:14;;;;;;;16.17;6.03;;;;;;;2.38;51.38;99576.00;4988712;28;20527;-66
2021/12/10 08:10:41;;;;;;;11.23;5.22;;;;;;;2.27;51.67;99560.81;4985282;28;20033;-67
2021/12/10 08:13:07;;;;;;;11.00;5.70;;;;;;;2.48;51.56;99567.13;4971741;28;20659;-66
2021/12/10 08:15:33;;;;;;;9.23;5.38;;;;;;;2.33;51.65;99555.50;4985822;28;20049;-66
2021/12/10 08:17:58;;;;;;;10.65;5.82;;;;;;;2.56;50.71;99559.19;4987173;28;20046;-66
2021/12/10 08:20:26;;;;;;;11.52;6.25;;;;;;;2.55;50.89;99560.06;4986224;28;20049;-66
2021/12/10 08:22:53;;;;;;;13.10;6.30;;;;;;;2.18;51.88;99566.22;4983133;28;20084;-66
2021/12/10 08:25:21;;;;;;;18.85;6.00;;;;;;;2.16;51.99;99562.84;4950889;28;20330;-66
2021/12/10 08:27:47;;;;;;;11.52;6.03;;;;;;;2.24;51.55;99560.91;4926218;28;20501;-67
2021/12/10 08:30:16;;;;;;;10.32;5.43;;;;;;;2.54;50.78;99558.38;4974158;28;20049;-67
2021/12/10 08:32:43;;;;;;;11.10;5.78;;;;;;;2.46;50.79;99558.56;4985099;28;20042;-67
2021/12/10 08:35:12;;;;;;;15.25;6.00;;;;;;;2.23;51.44;99556.63;4985868;28;20038;-67
2021/12/10 08:37:37;;;;;;;17.40;5.97;;;;;;;2.19;51.65;99557.59;4986813;28;20045;-66
2021/12/10 08:40:05;;;;;;;10.82;6.25;;;;;;;2.40;50.94;99551.03;4970077;28;20046;-66
2021/12/10 08:42:31;;;;;;;15.25;5.88;;;;;;;2.48;51.21;99561.13;4987260;28;20177;-67
2021/12/10 08:44:56;;;;;;;11.98;4.93;;;;;;;2.27;51.49;99557.41;4970168;28;20030;-67
2021/12/10 08:47:22;;;;;;;11.23;5.90;;;;;;;2.44;51.01;99559.50;4985162;28;20633;-67
2021/12/10 08:49:47;;;;;;;11.02;5.45;;;;;;;2.50;50.99;99559.34;4988094;28;20476;-67
2021/12/10 08:52:14;;;;;;;19.20;6.90;;;;;;;2.24;52.00;99567.78;4978065;28;20162;-67
2021/12/10 08:54:40;;;;;;;17.00;6.18;;;;;;;2.21;51.89;99567.88;4976725;28;20038;-66
2021/12/10 08:57:07;;;;;;;12.13;6.47;;;;;;;2.27;51.67;99575.44;4986953;28;20116;-65
2021/12/10 08:59:38;;;;;;;13.20;6.53;;;;;;;2.44;51.43;99568.09;4987724;28;20034;-67
2021/12/10 09:02:08;;;;;;;15.15;6.80;;;;;;;2.49;51.05;99580.88;4987999;28;20038;-65
2021/12/10 09:04:34;;;;;;;18.40;7.05;;;;;;;2.52;51.00;99578.22;4985767;28;20097;-65
2021/12/10 09:07:06;;;;;;;13.57;6.97;;;;;;;2.65;50.60;99578.72;4987296;28;20576;-66
2021/12/10 09:09:32;;;;;;;;;;;;;;;2.75;50.46;99578.41;4985595;28;20076;-66
2021/12/10 09:12:01;;;;;;;15.50;6.57;;;;;;;2.59;50.75;99577.16;4986383;28;19926;-66
2021/12/10 09:14:36;;;;;;;14.80;5.80;;;;;;;2.45;51.04;99574.13;4985976;28;20037;-66
2021/12/10 09:17:03;;;;;;;12.48;6.38;;;;;;;2.78;50.70;99572.34;4978783;28;20116;-66
2021/12/10 09:19:29;;;;;;;16.75;7.18;;;;;;;2.91;50.74;99572.81;4986002;28;20050;-67
2021/12/10 09:21:55;;;;;;;14.15;6.88;;;;;;;3.05;50.08;99570.69;4974652;28;20532;-66
2021/12/10 09:24:22;;;;;;;12.13;5.45;;;;;;;3.11;50.03;99579.97;4986105;28;20038;-66
2021/12/10 09:26:54;;;;;;;17.60;6.80;;;;;;;3.04;50.16;99576.72;4983002;28;20575;-66
2021/12/10 09:29:20;;;;;;;14.57;5.97;;;;;;;3.25;49.33;99571.78;4986202;28;20030;-66
2021/12/10 09:31:46;;;;;;;13.75;6.10;;;;;;;3.28;49.24;99580.31;4970241;28;20120;-66
2021/12/10 09:34:14;;;;;;;11.75;6.22;;;;;;;3.24;49.54;99581.28;4984274;28;20034;-66
2021/12/10 09:36:42;;;;;;;12.07;5.63;;;;;;;3.03;50.36;99581.94;4984772;28;20113;-66
2021/12/10 09:39:09;;;;;;;14.63;6.28;;;;;;;3.49;49.17;99581.44;4988522;28;20514;-65
2021/12/10 09:41:35;;;;;;;13.73;5.88;;;;;;;3.50;48.97;99579.69;4984939;28;20030;-65
2021/12/10 09:44:01;;;;;;;10.38;6.10;;;;;;;3.80;48.09;99572.69;4985720;28;20088;-66
2021/12/10 09:46:26;;;;;;;14.02;6.22;;;;;;;3.63;49.07;99570.66;5004737;22;20673;-71
2021/12/10 09:48:52;;;;;;;9.88;5.82;;;;;;;3.69;48.46;99572.19;4984655;28;20081;-72
2021/12/10 09:51:25;;;;;;;12.52;6.40;;;;;;;3.57;48.56;99582.03;4973827;28;20480;-71
2021/12/10 09:53:54;;;;;;;14.57;5.68;;;;;;;3.72;48.31;99567.78;4964062;28;20499;-71
2021/12/10 09:56:20;;;;;;;12.40;6.38;;;;;;;3.74;48.35;99567.72;4956452;28;20061;-71
2021/12/10 09:58:46;;;;;;;12.10;4.97;;;;;;;3.64;48.23;99566.31;4954721;28;20045;-71
2021/12/10 10:01:21;;;;;;;13.10;6.55;;;;;;;3.77;48.34;99570.22;4978331;28;20041;-72
2021/12/10 10:03:50;;;;;;;21.17;8.88;;;;;;;3.84;48.03;99570.84;4921365;28;20049;-72
2021/12/10 10:06:17;;;;;;;16.00;7.43;;;;;;;3.86;48.24;99564.72;4965096;28;20042;-72
2021/12/10 10:08:45;;;;;;;18.15;6.03;;;;;;;4.10;47.78;99565.66;4980888;28;20037;-71
2021/12/10 10:11:21;;;;;;;11.02;6.78;;;;;;;4.18;47.82;99558.47;4977413;28;20033;-71
2021/12/10 10:13:50;;;;;;;13.65;6.65;;;;;;;4.24;47.28;99560.00;4951539;28;20035;-70
2021/12/10 10:16:16;;;;;;;12.07;5.65;;;;;;;4.32;47.40;99563.19;4958009;28;20146;-71
2021/12/10 10:18:44;;;;;;;14.52;7.63;;;;;;;4.62;46.78;99565.56;4971045;28;20031;-72
2021/12/10 10:21:14;;;;;;;10.82;6.15;;;;;;;4.65;46.53;99562.84;4952656;28;20042;-72
2021/12/10 10:23:42;;;;;;;12.88;6.68;;;;;;;4.01;47.66;99551.28;4968767;28;20069;-71
2021/12/10 10:26:16;;;;;;;12.90;5.93;;;;;;;4.48;46.63;99552.28;4970966;28;20045;-71
2021/12/10 10:28:43;;;;;;;26.40;9.50;;;;;;;4.63;46.27;99552.59;4957367;28;20073;-71
2021/12/10 10:31:16;;;;;;;13.68;7.85;;;;;;;4.60;46.40;99549.25;4961150;28;20081;-71
2021/12/10 10:33:44;;;;;;;15.55;6.47;;;;;;;4.91;45.86;99553.34;4975842;28;20053;-72
2021/12/10 10:36:19;;;;;;;10.35;5.45;;;;;;;5.11;45.51;99550.00;4971365;28;20065;-71
2021/12/10 10:38:47;;;;;;;12.07;6.32;;;;;;;4.98;45.59;99553.03;4975150;28;20076;-72
2021/12/10 10:41:16;;;;;;;15.13;6.10;;;;;;;4.70;46.00;99553.19;4961985;28;20026;-72
2021/12/10 10:43:42;;;;;;;11.52;6.13;;;;;;;4.69;45.98;99554.09;4940640;28;20122;-72
2021/12/10 10:46:08;;;;;;;14.27;5.43;;;;;;;4.46;46.92;99562.69;4979813;28;20038;-71
2021/12/10 10:48:34;;;;;;;10.20;6.10;;;;;;;4.28;47.21;99561.59;4949135;28;20138;-74
2021/12/10 10:51:08;;;;;;;11.95;5.72;;;;;;;4.77;45.58;99559.84;4962399;28;20034;-72
2021/12/10 10:53:41;;;;;;;9.00;4.65;;;;;;;4.50;45.46;99556.50;4961115;28;20065;-71
2021/12/10 10:56:12;;;;;;;12.40;5.78;;;;;;;4.69;45.11;99566.19;4978915;28;20119;-72
2021/12/10 10:58:44;;;;;;;12.80;5.32;;;;;;;5.06;44.83;99570.88;4979528;28;20062;-72
2021/12/10 11:01:46;;;;;;;13.57;6.10;;;;;;;5.15;44.68;99565.34;4979881;28;20034;-71
2021/12/10 11:04:26;;;;;;;12.90;5.78;;;;;;;4.80;45.33;99562.28;4946743;28;20078;-72
2021/12/10 11:07:05;;;;;;;11.25;5.40;;;;;;;4.94;44.97;99568.75;4958388;28;20057;-72
2021/12/10 11:09:33;;;;;;;10.13;4.95;;;;;;;5.20;44.35;99567.75;4973670;28;20125;-72
2021/12/10 11:12:03;;;;;;;8.77;4.47;;;;;;;5.22;44.22;99566.78;4945154;28;20052;-73
2021/12/10 11:14:37;;;;;;;10.20;5.07;;;;;;;4.94;44.63;99569.56;4952315;28;20030;-75
2021/12/10 11:17:18;;;;;;;10.82;5.22;;;;;;;4.72;44.86;99560.88;4978249;28;20805;-72
2021/12/10 11:20:00;;;;;;;10.13;4.50;;;;;;;4.62;44.92;99557.81;4975787;28;20048;-72
2021/12/10 11:22:28;;;;;;;10.85;4.57;;;;;;;4.87;44.35;99562.06;4957112;28;20046;-73
2021/12/10 11:25:02;;;;;;;10.80;6.05;;;;;;;4.65;45.03;99557.69;4965357;28;20515;-71
2021/12/10 11:27:39;;;;;;;11.27;5.97;;;;;;;4.58;44.60;99569.16;4955600;28;20065;-72
2021/12/10 11:30:10;;;;;;;11.35;5.07;;;;;;;4.99;44.66;99564.25;4977801;28;20034;-72
2021/12/10 11:32:42;;;;;;;11.65;5.80;;;;;;;4.76;44.30;99560.72;4956718;28;20067;-72
2021/12/10 11:35:19;;;;;;;9.88;5.15;;;;;;;4.93;43.98;99564.47;4974615;28;20057;-72
2021/12/10 11:38:19;;;;;;;10.75;4.63;;;;;;;4.87;44.29;99565.50;4968938;28;20299;-72
2021/12/10 11:40:53;;;;;;;8.23;4.50;;;;;;;4.47;44.93;99566.09;4962861;28;20030;-71
2021/12/10 11:48:40;;;;;;;11.70;5.10;;;;;;;4.24;45.42;99557.41;4971848;28;20031;-72